createdAt,value
2023-01-01T00:00:11.692Z,17.10
2023-01-01T00:02:39.974Z,17.00
2023-01-01T00:05:09.385Z,17.00
2023-01-01T00:07:37.663Z,17.10
2023-01-01T00:10:26.018Z,17.10
2023-01-01T00:12:55.145Z,17.10
2023-01-01T00:15:23.396Z,17.20
2023-01-01T00:17:51.580Z,17.10
2023-01-01T00:20:20.280Z,17.00
2023-01-01T00:22:56.493Z,17.00
2023-01-01T00:25:26.410Z,17.00
2023-01-01T00:27:54.693Z,16.90
2023-01-01T00:30:25.695Z,16.90
2023-01-01T00:32:55.299Z,17.00
2023-01-01T00:35:25.124Z,16.90
2023-01-01T00:37:53.560Z,16.80
2023-01-01T00:40:21.956Z,16.90
2023-01-01T00:42:51.514Z,16.90
2023-01-01T00:45:22.349Z,16.80
2023-01-01T00:47:51.970Z,16.80
2023-01-01T00:50:20.542Z,16.80
2023-01-01T00:52:49.161Z,17.00
2023-01-01T00:55:17.686Z,16.90
2023-01-01T00:57:46.005Z,17.00
2023-01-01T01:00:17.489Z,16.90
2023-01-01T01:02:45.776Z,17.00
2023-01-01T01:05:14.161Z,16.80
2023-01-01T01:07:43.302Z,16.90
2023-01-01T01:10:12.229Z,16.90
2023-01-01T01:12:40.603Z,16.90
2023-01-01T01:15:11.108Z,16.90
2023-01-01T01:17:41.010Z,16.80
2023-01-01T01:20:10.655Z,17.00
2023-01-01T01:22:39.248Z,16.70
2023-01-01T01:25:09.086Z,16.80
2023-01-01T01:27:37.313Z,16.80
2023-01-01T01:30:07.227Z,16.90
2023-01-01T01:32:35.399Z,16.90
2023-01-01T01:35:05.792Z,17.00
2023-01-01T01:37:34.005Z,16.90
2023-01-01T01:40:02.248Z,17.00
2023-01-01T01:42:30.456Z,16.70
2023-01-01T01:45:00.943Z,16.80
2023-01-01T01:47:35.369Z,16.60
2023-01-01T01:50:12.650Z,16.50
2023-01-01T01:52:46.014Z,16.60
2023-01-01T01:55:15.235Z,16.60
2023-01-01T01:57:43.955Z,16.50
2023-01-01T02:00:14.560Z,16.60
2023-01-01T02:02:51.944Z,16.60
2023-01-01T02:05:23.507Z,16.40
2023-01-01T02:07:53.750Z,16.40
2023-01-01T02:10:22.508Z,16.40
2023-01-01T02:12:50.826Z,16.50
2023-01-01T02:15:19.574Z,16.50
2023-01-01T02:18:00.010Z,16.30
2023-01-01T02:20:42.119Z,16.40
2023-01-01T02:23:44.702Z,16.40
2023-01-01T02:26:38.774Z,16.50
2023-01-01T02:34:29.643Z,16.30
2023-01-01T02:37:01.597Z,16.40
2023-01-01T02:39:34.998Z,16.30
2023-01-01T02:42:06.928Z,16.30
2023-01-01T02:44:44.699Z,16.20
2023-01-01T02:47:17.599Z,16.30
2023-01-01T02:52:50.211Z,16.20
2023-01-01T02:58:27.072Z,16.10
2023-01-01T03:11:39.740Z,16.20
2023-01-01T03:14:17.393Z,16.00
2023-01-01T03:19:27.417Z,16.10
2023-01-01T03:22:02.737Z,16.30
2023-01-01T03:27:10.960Z,16.20
2023-01-01T03:29:43.086Z,16.10
2023-01-01T03:32:19.811Z,15.90
2023-01-01T03:40:00.597Z,15.90
2023-01-01T03:42:36.831Z,15.90
2023-01-01T03:47:39.742Z,16.30
2023-01-01T03:58:01.461Z,16.00
2023-01-01T04:00:36.233Z,15.90
2023-01-01T04:03:10.712Z,16.00
2023-01-01T04:05:43.586Z,16.00
2023-01-01T04:18:12.419Z,15.80
2023-01-01T04:20:40.670Z,15.70
2023-01-01T04:33:04.920Z,15.70
2023-01-01T04:35:34.473Z,15.90
2023-01-01T04:38:03.820Z,16.10
2023-01-01T04:40:32.018Z,15.90
2023-01-01T04:43:00.173Z,15.70
2023-01-01T04:45:28.438Z,16.00
2023-01-01T04:47:56.633Z,16.00
2023-01-01T05:00:21.380Z,15.80
2023-01-01T05:02:49.604Z,15.80
2023-01-01T05:05:19.141Z,15.70
2023-01-01T05:07:47.349Z,15.60
2023-01-01T05:10:17.069Z,15.60
2023-01-01T05:12:45.278Z,15.80
2023-01-01T05:15:13.465Z,15.80
2023-01-01T05:17:41.653Z,15.70
2023-01-01T05:22:38.986Z,15.50
2023-01-01T05:25:08.510Z,15.70
2023-01-01T05:27:38.400Z,15.60
2023-01-01T05:30:08.612Z,15.70
2023-01-01T05:32:38.430Z,15.60
2023-01-01T05:35:07.506Z,15.60
2023-01-01T05:37:35.704Z,15.90
2023-01-01T05:40:03.921Z,15.80
2023-01-01T05:42:32.181Z,15.50
2023-01-01T05:45:01.719Z,15.60
2023-01-01T05:47:30.178Z,15.70
2023-01-01T05:49:58.398Z,15.70
2023-01-01T06:02:22.453Z,16.10
2023-01-01T06:17:13.530Z,15.70
2023-01-01T06:19:43.082Z,15.60
2023-01-01T06:27:08.702Z,15.40
2023-01-01T06:29:36.856Z,15.40
2023-01-01T06:34:33.984Z,15.60
2023-01-01T06:37:06.974Z,15.90
2023-01-01T06:39:35.439Z,16.10
2023-01-01T06:47:00.672Z,15.80
2023-01-01T06:59:24.301Z,15.60
2023-01-01T07:01:52.576Z,15.90
2023-01-01T07:16:44.996Z,15.50
2023-01-01T07:31:44.492Z,15.90
2023-01-01T07:36:44.317Z,15.50
2023-01-01T07:39:12.573Z,15.60
2023-01-01T07:46:39.339Z,15.10
2023-01-01T07:49:07.660Z,14.30
2023-01-01T07:54:07.302Z,15.00
2023-01-01T07:56:36.516Z,15.10
2023-01-01T07:59:05.507Z,15.30
2023-01-01T08:01:39.129Z,15.10
2023-01-01T08:04:07.675Z,14.90
2023-01-01T08:06:35.851Z,15.40
2023-01-01T08:09:04.103Z,15.20
2023-01-01T08:11:32.317Z,15.20
2023-01-01T08:14:00.619Z,15.10
2023-01-01T08:16:28.807Z,14.90
2023-01-01T08:18:58.664Z,15.00
2023-01-01T08:21:26.891Z,14.80
2023-01-01T08:23:55.081Z,14.90
2023-01-01T08:26:30.506Z,14.90
2023-01-01T08:28:59.366Z,15.10
2023-01-01T08:31:27.611Z,15.40
2023-01-01T08:33:55.872Z,15.50
2023-01-01T08:36:25.730Z,15.00
2023-01-01T08:38:53.945Z,15.20
2023-01-01T08:41:22.257Z,15.40
2023-01-01T08:43:50.447Z,15.30
2023-01-01T08:53:50.919Z,15.60
2023-01-01T08:56:20.430Z,15.10
2023-01-01T08:58:48.979Z,15.30
2023-01-01T09:01:17.610Z,15.20
2023-01-01T09:06:15.173Z,15.30
2023-01-01T09:08:43.380Z,15.00
2023-01-01T09:11:24.696Z,15.40
2023-01-01T09:13:54.000Z,15.20
2023-01-01T09:16:23.717Z,15.20
2023-01-01T09:18:52.213Z,15.20
2023-01-01T09:21:20.381Z,15.50
2023-01-01T09:23:48.692Z,15.60
2023-01-01T09:26:18.259Z,15.60
2023-01-01T09:28:46.495Z,16.00
2023-01-01T09:41:30.529Z,15.80
2023-01-01T09:44:09.322Z,15.50
2023-01-01T09:46:37.876Z,15.90
2023-01-01T09:49:14.089Z,15.60
2023-01-01T09:51:51.038Z,15.20
2023-01-01T09:54:29.673Z,15.20
2023-01-01T09:57:02.121Z,15.40
2023-01-01T10:04:56.086Z,15.50
2023-01-01T10:07:37.246Z,15.20
2023-01-01T10:10:17.143Z,15.30
2023-01-01T10:12:55.860Z,15.20
2023-01-01T10:15:28.803Z,15.80
2023-01-01T10:18:01.201Z,15.50
2023-01-01T10:20:34.599Z,16.10
2023-01-01T10:23:12.895Z,15.50
2023-01-01T10:25:41.938Z,16.00
2023-01-01T10:28:22.099Z,15.30
2023-01-01T10:30:52.887Z,15.90
2023-01-01T10:33:21.058Z,15.90
2023-01-01T10:35:52.744Z,15.70
2023-01-01T10:38:26.105Z,15.70
2023-01-01T10:41:13.638Z,16.00
2023-01-01T10:43:48.378Z,15.60
2023-01-01T10:46:29.409Z,15.80
2023-01-01T10:49:10.879Z,15.20
2023-01-01T10:51:44.870Z,15.30
2023-01-01T10:54:33.466Z,15.30
2023-01-01T10:57:13.725Z,15.40
2023-01-01T10:59:51.704Z,15.70
2023-01-01T11:02:24.469Z,16.00
2023-01-01T11:05:19.300Z,15.70
2023-01-01T11:07:49.876Z,16.10
2023-01-01T11:10:22.300Z,15.50
2023-01-01T11:13:08.654Z,15.70
2023-01-01T11:15:41.867Z,15.90
2023-01-01T11:18:15.824Z,15.60
2023-01-01T11:20:44.810Z,15.70
2023-01-01T11:23:28.451Z,15.90
2023-01-01T11:26:07.836Z,16.10
2023-01-01T11:28:36.841Z,15.70
2023-01-01T11:31:14.806Z,15.60
2023-01-01T11:33:49.158Z,15.60
2023-01-01T11:36:25.121Z,15.30
2023-01-01T11:39:13.986Z,15.40
2023-01-01T11:41:47.872Z,15.70
2023-01-01T11:44:31.082Z,15.60
2023-01-01T11:47:01.384Z,16.10
2023-01-01T11:49:31.546Z,15.80
2023-01-01T11:52:00.107Z,15.70
2023-01-01T11:54:35.944Z,15.60
2023-01-01T11:57:13.519Z,15.60
2023-01-01T11:59:50.687Z,15.30
2023-01-01T12:02:35.319Z,15.70
2023-01-01T12:05:14.749Z,15.90
2023-01-01T12:07:45.099Z,15.70
2023-01-01T12:10:23.415Z,15.50
2023-01-01T12:12:58.695Z,15.40
2023-01-01T12:15:31.683Z,15.40
2023-01-01T12:18:08.118Z,15.80
2023-01-01T12:20:40.402Z,16.20
2023-01-01T12:23:12.386Z,15.90
2023-01-01T12:25:44.981Z,16.30
2023-01-01T12:28:30.897Z,15.90
2023-01-01T12:31:10.137Z,15.80
2023-01-01T12:33:54.912Z,15.90
2023-01-01T12:36:39.556Z,15.80
2023-01-01T12:40:15.056Z,15.60
2023-01-01T12:43:00.979Z,16.10
2023-01-01T12:45:58.898Z,15.40
2023-01-01T12:48:53.979Z,15.90
2023-01-01T12:51:35.790Z,16.20
2023-01-01T12:54:40.597Z,15.90
2023-01-01T12:57:15.648Z,16.00
2023-01-01T12:59:50.829Z,16.30
2023-01-01T13:02:24.436Z,16.00
2023-01-01T13:04:57.985Z,15.90
2023-01-01T13:07:33.093Z,16.20
2023-01-01T13:10:11.347Z,15.80
2023-01-01T13:12:40.095Z,15.70
2023-01-01T13:15:46.843Z,15.20
2023-01-01T13:18:28.624Z,15.80
2023-01-01T13:21:02.286Z,15.80
2023-01-01T13:23:52.965Z,15.90
2023-01-01T13:26:43.219Z,16.20
2023-01-01T13:29:49.969Z,16.40
2023-01-01T13:32:18.177Z,16.10
2023-01-01T13:35:18.509Z,16.50
2023-01-01T13:37:48.575Z,16.30
2023-01-01T13:43:32.047Z,16.00
2023-01-01T13:46:12.691Z,15.90
2023-01-01T13:49:12.362Z,16.50
2023-01-01T13:52:20.315Z,16.30
2023-01-01T13:55:36.329Z,16.20
2023-01-01T14:01:41.220Z,15.90
2023-01-01T14:04:28.466Z,16.40
2023-01-01T14:07:09.202Z,16.20
2023-01-01T14:09:46.996Z,16.40
2023-01-01T14:14:49.225Z,17.00
2023-01-01T14:17:18.169Z,15.80
2023-01-01T14:19:46.409Z,15.90
2023-01-01T14:22:18.010Z,16.40
2023-01-01T14:29:53.333Z,16.70
2023-01-01T14:32:27.309Z,15.80
2023-01-01T14:35:02.912Z,15.60
2023-01-01T14:37:31.138Z,16.10
2023-01-01T14:40:17.958Z,15.70
2023-01-01T14:42:48.434Z,15.60
2023-01-01T14:45:19.849Z,15.70
2023-01-01T14:47:51.702Z,15.80
2023-01-01T14:50:26.456Z,16.50
2023-01-01T14:53:01.994Z,16.30
2023-01-01T14:55:39.171Z,15.90
2023-01-01T14:58:11.859Z,15.90
2023-01-01T15:15:55.337Z,16.70
2023-01-01T15:18:41.583Z,15.80
2023-01-01T15:21:16.706Z,16.00
2023-01-01T15:23:55.160Z,15.80
2023-01-01T15:26:31.240Z,15.50
2023-01-01T15:29:01.023Z,15.60
2023-01-01T15:31:39.896Z,15.60
2023-01-01T15:34:18.098Z,15.50
2023-01-01T15:36:46.340Z,15.50
2023-01-01T15:39:15.159Z,15.90
2023-01-01T15:41:47.133Z,16.20
2023-01-01T15:51:57.732Z,16.30
2023-01-01T15:54:26.971Z,17.50
2023-01-01T15:56:55.448Z,17.30
2023-01-01T15:59:34.433Z,16.70
2023-01-01T16:02:14.902Z,16.90
2023-01-01T16:04:47.998Z,16.60
2023-01-01T16:07:23.709Z,16.50
2023-01-01T16:09:57.331Z,16.50
2023-01-01T16:12:26.709Z,16.00
2023-01-01T16:14:54.914Z,16.10
2023-01-01T16:17:24.601Z,15.70
2023-01-01T16:19:52.847Z,15.40
2023-01-01T16:22:21.116Z,14.70
2023-01-01T16:24:49.384Z,14.70
2023-01-01T16:27:18.087Z,15.30
2023-01-01T16:29:52.733Z,14.50
2023-01-01T16:32:24.171Z,14.90
2023-01-01T16:34:52.426Z,14.60
2023-01-01T16:37:22.933Z,14.40
2023-01-01T16:39:51.450Z,14.40
2023-01-01T16:42:19.832Z,14.60
2023-01-01T16:44:48.002Z,15.30
2023-01-01T16:47:16.324Z,15.50
2023-01-01T16:49:47.481Z,15.80
2023-01-01T16:52:15.713Z,15.70
2023-01-01T16:54:44.139Z,16.20
2023-01-01T16:57:12.354Z,16.40
2023-01-01T16:59:40.546Z,15.90
2023-01-01T17:02:12.069Z,15.90
2023-01-01T17:04:40.323Z,15.70
2023-01-01T17:07:09.886Z,16.10
2023-01-01T17:09:38.096Z,15.80
2023-01-01T17:12:06.818Z,15.40
2023-01-01T17:14:35.006Z,15.20
2023-01-01T17:17:03.253Z,15.00
2023-01-01T17:19:31.441Z,14.20
2023-01-01T17:21:59.636Z,14.70
2023-01-01T17:24:29.200Z,15.30
2023-01-01T17:26:57.378Z,15.40
2023-01-01T17:29:26.945Z,15.70
2023-01-01T17:31:55.327Z,15.10
2023-01-01T17:34:23.490Z,15.70
2023-01-01T17:36:51.751Z,15.50
2023-01-01T17:39:19.966Z,15.30
2023-01-01T17:41:50.508Z,15.50
2023-01-01T17:44:18.686Z,16.00
2023-01-01T17:49:17.313Z,15.50
2023-01-01T17:51:45.513Z,15.20
2023-01-01T17:54:14.121Z,14.60
2023-01-01T17:56:42.785Z,14.60
2023-01-01T17:59:12.585Z,15.30
2023-01-01T18:01:41.088Z,15.30
2023-01-01T18:04:11.410Z,15.50
2023-01-01T18:06:43.619Z,15.60
2023-01-01T18:09:15.123Z,15.10
2023-01-01T18:11:44.438Z,14.60
2023-01-01T18:14:17.310Z,13.80
2023-01-01T18:16:49.547Z,14.30
2023-01-01T18:19:17.883Z,14.70
2023-01-01T18:21:46.066Z,14.70
2023-01-01T18:24:16.533Z,15.20
2023-01-01T18:26:44.888Z,15.00
2023-01-01T18:29:14.520Z,15.30
2023-01-01T18:31:42.863Z,15.50
2023-01-01T18:34:12.235Z,15.40
2023-01-01T18:36:40.714Z,15.70
2023-01-01T18:39:16.912Z,16.30
2023-01-01T18:42:32.581Z,15.80
2023-01-01T18:45:16.060Z,15.90
2023-01-01T18:47:45.849Z,15.90
2023-01-01T18:50:23.994Z,15.90
2023-01-01T18:52:55.510Z,16.20
2023-01-01T18:55:27.959Z,16.60
2023-01-01T18:58:01.861Z,16.60
2023-01-01T19:00:33.281Z,16.50
2023-01-01T19:03:03.744Z,16.50
2023-01-01T19:05:34.676Z,16.60
2023-01-01T19:08:15.698Z,16.50
2023-01-01T19:10:47.900Z,16.00
2023-01-01T19:13:20.782Z,15.40
2023-01-01T19:15:53.842Z,14.40
2023-01-01T19:31:06.266Z,13.80
2023-01-01T19:33:34.867Z,12.90
2023-01-01T19:36:03.062Z,12.90
2023-01-01T19:41:00.629Z,13.80
2023-01-01T19:43:28.801Z,13.00
2023-01-01T19:45:57.087Z,13.10
2023-01-01T19:48:26.684Z,13.00
2023-01-01T19:50:54.882Z,12.80
2023-01-01T19:55:51.575Z,13.60
2023-01-01T19:58:22.135Z,13.10
2023-01-01T20:00:50.856Z,14.40
2023-01-01T20:03:52.891Z,14.10
2023-01-01T20:06:10.664Z,14.20
2023-01-01T20:08:39.165Z,13.60
2023-01-01T20:11:08.414Z,13.90
2023-01-01T20:13:36.682Z,14.50
2023-01-01T20:16:05.418Z,14.00
2023-01-01T20:18:34.283Z,13.30
2023-01-01T20:21:25.653Z,13.10
2023-01-01T20:23:56.538Z,13.90
2023-01-01T20:26:26.067Z,13.80
2023-01-01T20:29:11.759Z,14.70
2023-01-01T20:31:40.485Z,14.10
2023-01-01T20:34:08.729Z,14.40
2023-01-01T20:36:54.907Z,14.80
2023-01-01T20:39:24.714Z,14.70
2023-01-01T20:41:52.897Z,14.60
2023-01-01T20:44:21.114Z,14.00
2023-01-01T20:46:49.705Z,13.80
2023-01-01T20:49:18.438Z,13.80
2023-01-01T20:51:47.113Z,14.00
2023-01-01T20:54:15.321Z,13.70
2023-01-01T20:56:45.083Z,14.40
2023-01-01T20:59:34.068Z,14.20
2023-01-01T21:02:01.876Z,14.10
2023-01-01T21:04:30.207Z,13.90
2023-01-01T21:06:58.448Z,13.20
2023-01-01T21:09:26.697Z,13.40
2023-01-01T21:11:56.266Z,13.80
2023-01-01T21:14:26.247Z,12.90
2023-01-01T21:16:54.624Z,13.30
2023-01-01T21:19:26.942Z,13.10
2023-01-01T21:21:57.999Z,13.40
2023-01-01T21:24:28.878Z,13.50
2023-01-01T21:27:10.470Z,13.50
2023-01-01T21:29:44.752Z,13.90
2023-01-01T21:32:21.025Z,13.70
2023-01-01T21:34:50.694Z,13.50
2023-01-01T21:37:42.971Z,13.30
2023-01-01T21:40:38.431Z,13.30
2023-01-01T21:43:33.432Z,13.10
2023-01-01T21:46:18.654Z,13.50
2023-01-01T21:48:56.592Z,13.20
2023-01-01T21:51:26.772Z,13.40
2023-01-01T21:54:03.325Z,13.50
2023-01-01T21:56:36.213Z,13.50
2023-01-01T21:59:27.523Z,13.40
2023-01-01T22:02:01.930Z,13.50
2023-01-01T22:04:37.592Z,13.30
2023-01-01T22:10:16.801Z,13.60
2023-01-01T22:12:45.348Z,13.70
2023-01-01T22:15:39.152Z,13.70
2023-01-01T22:18:25.023Z,13.40
2023-01-01T22:20:53.348Z,13.80
2023-01-01T22:23:34.831Z,13.80
2023-01-01T22:26:13.513Z,13.50
2023-01-01T22:28:44.612Z,13.30
2023-01-01T22:31:19.779Z,13.40
2023-01-01T22:33:51.057Z,13.50
2023-01-01T22:36:25.403Z,13.60
2023-01-01T22:38:56.476Z,13.60
2023-01-01T22:41:24.674Z,13.50
2023-01-01T22:43:59.630Z,13.50
2023-01-01T22:46:33.074Z,13.60
2023-01-01T22:49:11.465Z,13.70
2023-01-01T22:51:44.378Z,13.80
2023-01-01T22:54:12.637Z,13.90
2023-01-01T22:56:40.819Z,13.80
2023-01-01T23:01:38.958Z,14.20
2023-01-01T23:04:07.211Z,13.90
2023-01-01T23:06:35.445Z,13.70
2023-01-01T23:09:03.662Z,14.10
2023-01-01T23:11:31.921Z,14.50
2023-01-01T23:14:17.562Z,15.20
2023-01-01T23:16:47.094Z,14.60
2023-01-01T23:19:15.410Z,14.50
2023-01-01T23:21:43.909Z,14.80
2023-01-01T23:24:16.485Z,14.20
2023-01-01T23:26:45.119Z,14.10
2023-01-01T23:29:15.478Z,14.40
2023-01-01T23:31:44.691Z,14.20
2023-01-01T23:34:14.616Z,14.30
2023-01-01T23:36:44.411Z,14.20
2023-01-01T23:39:12.681Z,13.90
2023-01-01T23:41:40.875Z,14.20
2023-01-01T23:44:09.078Z,15.00
2023-01-01T23:46:39.315Z,14.70
2023-01-01T23:49:08.238Z,14.40
2023-01-01T23:51:40.142Z,14.20
2023-01-01T23:54:08.610Z,14.00
2023-01-01T23:56:36.924Z,14.10
2023-01-01T23:59:05.236Z,14.10
